Time;durP1;ratioP1;P1;durP2;ratioP2;P2;SDS_P1;SDS_P2;PMS_P1;PMS_P2;Temp;Humidity;BMP_temperature;BMP_pressure;BME280_temperature;BME280_humidity;BME280_pressure;Samples;Min_cycle;Max_cycle;Signal;HPM_P1;HPM_P2
2021/12/24 00:00:15;;;;;;;0.50;0.32;;;7.60;1.40;;;8.46;100.00;94784.27;646876;216;42725;-76
2021/12/24 00:02:57;;;;;;;0.50;0.40;;;7.70;1.40;;;8.48;100.00;94783.08;646384;216;31474;-76
2021/12/24 00:05:38;;;;;;;0.50;0.40;;;7.70;1.40;;;8.37;100.00;94771.42;644163;216;32032;-76
2021/12/24 00:08:20;;;;;;;1.60;0.50;;;7.60;1.40;;;8.30;100.00;94775.95;648290;216;31967;-76
2021/12/24 00:11:02;;;;;;;0.68;0.40;;;7.50;1.40;;;8.16;100.00;94770.38;648983;212;31634;-76
2021/12/24 00:13:46;;;;;;;1.00;0.40;;;7.30;1.40;;;8.25;100.00;94769.32;619591;222;32327;-76
2021/12/24 00:16:32;;;;;;;0.50;0.40;;;7.40;1.40;;;8.22;100.00;94760.39;648479;212;31498;-77
2021/12/24 00:22:21;;;;;;;0.70;0.40;;;7.30;1.40;;;8.16;100.00;94758.01;647241;212;31502;-74
2021/12/24 00:35:55;;;;;;;1.10;0.57;;;7.10;1.40;;;7.87;100.00;94740.73;645122;212;31536;-76
2021/12/24 00:38:42;;;;;;;0.90;0.80;;;7.20;1.40;;;7.89;100.00;94736.32;618155;226;31849;-76
2021/12/24 00:41:30;;;;;;;0.40;0.30;;;7.20;1.40;;;7.99;100.00;94736.25;646684;216;31500;-75
2021/12/24 00:44:12;;;;;;;0.97;0.60;;;7.20;1.40;;;7.78;100.00;94736.49;646521;216;31569;-76
2021/12/24 00:46:53;;;;;;;0.40;0.30;;;6.90;1.40;;;7.87;100.00;94728.12;650928;216;31478;-76
2021/12/24 00:49:35;;;;;;;0.90;0.50;;;7.10;1.40;;;7.89;100.00;94721.84;645618;212;31942;-76
2021/12/24 00:52:31;;;;;;;0.40;0.37;;;7.10;1.40;;;7.98;100.00;94717.38;646283;216;32019;-76
2021/12/24 00:55:02;;;;;;;0.60;0.60;;;7.20;1.40;;;7.84;100.00;94713.88;649492;216;31613;-76
2021/12/24 00:57:48;;;;;;;0.50;0.50;;;7.00;1.40;;;7.98;100.00;94716.67;618514;226;32000;-74
2021/12/24 01:00:30;;;;;;;0.70;0.53;;;7.30;1.40;;;8.03;100.00;94713.25;647773;212;31507;-76
2021/12/24 01:03:12;;;;;;;0.40;0.40;;;7.30;1.40;;;8.05;100.00;94713.56;647834;216;31510;-76
2021/12/24 01:05:53;;;;;;;0.50;0.40;;;7.20;1.40;;;7.88;100.00;94713.58;638780;216;31656;-77
2021/12/24 01:08:35;;;;;;;0.50;0.47;;;7.00;1.40;;;7.83;100.00;94707.11;647097;212;31513;-76
2021/12/24 01:11:16;;;;;;;1.00;0.70;;;7.00;1.40;;;7.99;100.00;94707.48;620410;222;31999;-76
2021/12/24 01:13:59;;;;;;;2.60;0.90;;;7.30;1.40;;;8.18;100.00;94701.33;647086;216;31701;-76
2021/12/24 01:19:22;;;;;;;0.60;0.33;;;7.50;1.40;;;8.29;100.00;94695.56;618635;226;32349;-77
2021/12/24 01:25:08;;;;;;;0.70;0.57;;;7.60;1.40;;;8.49;100.00;94686.95;644762;216;31665;-75
2021/12/24 01:28:03;;;;;;;0.50;0.43;;;7.80;1.40;;;8.60;100.00;94691.45;618483;226;32455;-76
2021/12/24 01:41:07;;;;;;;0.77;0.50;;;8.00;1.40;;;8.80;100.00;94687.80;649843;216;31503;-74
2021/12/24 01:43:45;;;;;;;0.60;0.40;;;8.00;1.40;;;8.75;100.00;94693.02;646455;216;31502;-77
2021/12/24 01:46:26;;;;;;;0.70;0.60;;;7.90;1.40;;;8.98;100.00;94689.37;648060;216;31485;-76
2021/12/24 01:49:08;;;;;;;0.40;0.40;;;8.10;1.40;;;8.98;100.00;94684.62;646932;216;31531;-77
2021/12/24 01:51:50;;;;;;;0.80;0.50;;;8.20;1.40;;;8.98;100.00;94679.59;649989;212;31511;-76
2021/12/24 01:54:32;;;;;;;1.00;0.50;;;8.20;1.40;;;8.95;100.00;94675.07;648495;216;31578;-76
2021/12/24 01:57:13;;;;;;;0.50;0.40;;;8.10;1.40;;;8.77;100.00;94669.72;648377;212;32015;-76
2021/12/24 02:00:03;;;;;;;0.40;0.30;;;8.00;1.40;;;8.86;100.00;94673.05;644910;216;31606;-75
2021/12/24 02:02:49;;;;;;;0.40;0.30;;;8.10;1.40;;;8.90;100.00;94667.89;647993;216;31494;-76
2021/12/24 02:05:31;;;;;;;1.40;0.40;;;8.20;1.40;;;8.90;100.00;94660.02;641984;216;31761;-76
2021/12/24 02:08:12;;;;;;;0.50;0.50;;;8.10;1.40;;;8.86;100.00;94668.61;618124;226;32074;-76
2021/12/24 02:10:54;;;;;;;0.70;0.32;;;8.10;1.40;;;8.87;100.00;94662.67;648767;212;31484;-76
2021/12/24 02:16:21;;;;;;;0.50;0.30;;;8.20;1.40;;;9.00;100.00;94651.91;648980;216;31511;-76
2021/12/24 02:30:08;;;;;;;1.58;0.75;;;8.20;1.40;;;9.07;100.00;94635.48;645621;216;31583;-76
2021/12/24 02:32:50;;;;;;;0.80;0.60;;;8.20;1.40;;;8.86;100.00;94637.23;620898;226;31805;-76
2021/12/24 02:35:51;;;;;;;0.82;0.73;;;8.10;1.40;;;8.94;100.00;94640.34;649837;216;31575;-76
2021/12/24 02:38:33;;;;;;;0.70;0.40;;;8.20;1.40;;;9.09;100.00;94642.19;619143;222;31837;-76
2021/12/24 02:41:15;;;;;;;0.50;0.30;;;8.30;1.40;;;9.15;100.00;94629.92;648600;216;31488;-76
2021/12/24 02:44:05;;;;;;;0.52;0.47;;;8.40;1.40;;;9.16;100.00;94632.00;647166;212;31537;-75
2021/12/24 02:55:08;;;;;;;0.60;0.40;;;8.40;1.40;;;9.02;100.00;94618.17;647102;216;31623;-76
2021/12/24 02:57:50;;;;;;;0.40;0.20;;;8.30;1.40;;;9.01;100.00;94610.30;622712;226;32202;-76
2021/12/24 03:00:31;;;;;;;0.80;0.50;;;8.20;1.40;;;9.15;100.00;94605.77;647833;212;31572;-76
2021/12/24 03:03:14;;;;;;;0.60;0.30;;;8.40;1.40;;;9.08;100.00;94593.75;649248;216;31512;-77
2021/12/24 03:05:59;;;;;;;0.80;0.40;;;8.20;1.40;;;9.17;100.00;94586.55;645559;216;31547;-76
2021/12/24 03:08:41;;;;;;;1.77;0.50;;;8.40;1.40;;;9.10;100.00;94586.20;647247;212;31492;-76
2021/12/24 03:11:23;;;;;;;0.40;0.40;;;8.20;1.40;;;9.03;100.00;94582.34;647309;216;32059;-76
2021/12/24 03:14:04;;;;;;;0.40;0.30;;;8.10;1.40;;;9.08;100.00;94581.42;646007;216;42355;-75
2021/12/24 03:16:51;;;;;;;0.40;0.30;;;8.20;1.40;;;9.10;100.00;94576.95;649741;216;31898;-76
2021/12/24 03:19:31;;;;;;;0.50;0.50;;;8.10;1.40;;;9.23;100.00;94579.59;647363;216;31489;-76
2021/12/24 03:22:30;;;;;;;0.40;0.30;;;8.50;1.40;;;9.21;100.00;94578.37;651784;212;31594;-77
2021/12/24 03:24:54;;;;;;;0.40;0.30;;;8.40;1.40;;;9.11;100.00;94577.62;618907;226;31827;-77
2021/12/24 03:27:36;;;;;;;0.70;0.40;;;8.40;1.40;;;9.23;100.00;94571.48;621188;222;31814;-77
2021/12/24 03:30:17;;;;;;;0.40;0.40;;;8.50;1.40;;;9.30;100.00;94575.88;649064;216;31497;-77
2021/12/24 03:32:59;;;;;;;0.70;0.50;;;8.60;1.40;;;9.42;100.00;94572.17;651032;216;31759;-76
2021/12/24 03:35:55;;;;;;;0.80;0.52;;;8.70;1.40;;;9.22;100.00;94580.43;646091;212;31563;-75
2021/12/24 03:38:36;;;;;;;0.50;0.40;;;8.50;1.40;;;9.17;100.00;94572.27;646978;216;31548;-76
2021/12/24 03:43:55;;;;;;;0.80;0.50;;;8.30;1.40;;;9.01;100.00;94560.45;646633;216;42190;-76
2021/12/24 03:46:54;;;;;;;0.70;0.50;;;8.10;1.40;;;9.03;100.00;94558.45;647897;216;31464;-76
2021/12/24 03:49:35;;;;;;;1.05;0.30;;;8.20;1.40;;;8.98;100.00;94555.07;619972;226;32352;-77
2021/12/24 03:52:23;;;;;;;0.40;0.30;;;8.20;1.40;;;9.06;100.00;94549.12;617706;226;31853;-77
2021/12/24 03:57:38;;;;;;;0.50;0.30;;;7.90;1.40;;;8.75;100.00;94546.06;648063;216;31517;-74
2021/12/24 04:00:21;;;;;;;0.40;0.30;;;7.90;1.40;;;8.62;100.00;94544.56;632233;221;31704;-76
2021/12/24 04:03:02;;;;;;;0.90;0.50;;;7.70;1.40;;;8.55;100.00;94551.69;619728;226;31941;-76
2021/12/24 04:05:46;;;;;;;0.50;0.43;;;7.70;1.40;;;8.34;100.00;94552.00;642060;212;31677;-75
2021/12/24 04:08:27;;;;;;;1.20;0.30;;;7.40;1.40;;;8.26;100.00;94553.45;647699;213;32135;-76
2021/12/24 04:11:11;;;;;;;0.40;0.30;;;7.30;1.40;;;8.30;100.00;94549.77;646276;216;31530;-76
2021/12/24 04:13:54;;;;;;;0.53;0.43;;;7.40;1.40;;;8.24;100.00;94547.45;649618;216;31964;-75
2021/12/24 04:16:35;;;;;;;0.50;0.40;;;7.20;1.40;;;8.00;100.00;94547.21;645765;212;31461;-75
2021/12/24 04:19:35;;;;;;;0.70;0.40;;;7.10;1.40;;;8.03;100.00;94545.46;647262;212;31635;-75
2021/12/24 04:24:53;;;;;;;0.80;0.50;;;7.40;1.40;;;8.25;100.00;94531.07;650419;216;31497;-77
2021/12/24 04:27:34;;;;;;;0.52;0.40;;;7.50;1.40;;;8.26;100.00;94528.45;651069;212;31471;-75
2021/12/24 04:30:22;;;;;;;0.70;0.40;;;7.50;1.40;;;8.40;100.00;94525.42;648881;216;31518;-75
2021/12/24 04:36:00;;;;;;;0.40;0.30;;;7.40;1.40;;;8.34;100.00;94531.66;618683;222;31821;-76
2021/12/24 04:39:04;;;;;;;0.60;0.50;;;7.60;1.40;;;8.13;100.00;94530.66;647239;212;31485;-74
2021/12/24 04:52:57;;;;;;;0.70;0.30;;;7.30;1.40;;;8.18;100.00;94534.31;618429;222;31992;-75
2021/12/24 05:03:47;;;;;;;0.40;0.30;;;7.40;1.40;;;8.29;100.00;94547.47;621725;226;32404;-76
2021/12/24 05:06:37;;;;;;;0.40;0.30;;;7.50;1.40;;;8.25;100.00;94552.13;637445;212;32206;-75
2021/12/24 05:09:15;;;;;;;0.60;0.40;;;7.40;1.40;;;8.18;100.00;94543.19;645999;216;31505;-75
2021/12/24 05:11:55;;;;;;;0.50;0.27;;;7.30;1.40;;;8.33;100.00;94537.59;618590;222;31974;-75
2021/12/24 05:14:37;;;;;;;0.40;0.30;;;7.60;1.40;;;8.37;100.00;94530.34;645125;212;31526;-75
2021/12/24 05:17:27;;;;;;;0.40;0.40;;;7.50;1.40;;;8.27;100.00;94531.23;649367;215;31492;-75
2021/12/24 05:22:48;;;;;;;0.45;0.25;;;7.30;1.40;;;8.14;100.00;94541.01;646424;212;42933;-76
2021/12/24 05:25:29;;;;;;;0.70;0.60;;;7.30;1.40;;;8.18;100.00;94532.48;649252;212;32041;-75
2021/12/24 05:28:11;;;;;;;1.20;0.60;;;7.50;1.40;;;8.19;100.00;94539.27;650203;212;31483;-74
2021/12/24 05:30:53;;;;;;;0.70;0.40;;;7.50;1.40;;;8.29;100.00;94531.06;652084;212;31513;-76
2021/12/24 05:35:51;;;;;;;0.60;0.40;;;7.40;1.40;;;8.28;100.00;94531.52;646842;212;43694;-76
2021/12/24 05:38:33;;;;;;;0.60;0.40;;;7.50;1.40;;;8.13;100.00;94526.66;645593;216;32091;-75
2021/12/24 05:41:15;;;;;;;0.90;0.50;;;7.30;1.40;;;8.33;100.00;94524.80;647735;212;31502;-74
2021/12/24 05:43:58;;;;;;;0.60;0.40;;;7.50;1.40;;;8.10;100.00;94530.15;634601;221;31727;-74
2021/12/24 05:46:38;;;;;;;1.10;0.40;;;7.20;1.40;;;8.08;100.00;94526.48;647149;216;31622;-76
2021/12/24 05:49:20;;;;;;;0.90;0.80;;;7.20;1.40;;;8.26;100.00;94518.83;646227;216;31527;-76
2021/12/24 05:52:05;;;;;;;0.50;0.30;;;7.50;1.40;;;8.43;100.00;94518.51;647765;212;31482;-77
2021/12/24 05:54:47;;;;;;;1.03;0.50;;;7.60;1.40;;;8.50;100.00;94518.95;618013;222;31821;-77
2021/12/24 05:57:29;;;;;;;0.40;0.40;;;7.70;1.40;;;8.52;100.00;94517.71;651001;212;31449;-74
2021/12/24 06:00:11;;;;;;;0.50;0.30;;;7.80;1.40;;;8.52;100.00;94524.84;648597;216;31490;-76
2021/12/24 06:02:53;;;;;;;0.70;0.50;;;7.70;1.40;;;8.46;100.00;94521.52;616941;222;32025;-75
2021/12/24 06:05:34;;;;;;;0.70;0.50;;;7.70;1.40;;;8.63;100.00;94525.14;643326;216;31739;-76
2021/12/24 06:08:16;;;;;;;1.20;0.50;;;7.80;1.40;;;8.59;100.00;94521.98;649114;212;31585;-75
2021/12/24 06:10:58;;;;;;;0.90;0.40;;;7.80;1.40;;;8.49;100.00;94525.64;648441;212;32381;-74
2021/12/24 06:13:39;;;;;;;0.57;0.50;;;7.80;1.40;;;8.59;100.00;94519.16;647152;216;31486;-76
2021/12/24 06:16:21;;;;;;;0.70;0.47;;;7.90;1.40;;;8.62;100.00;94526.27;619769;225;31909;-76
2021/12/24 06:19:04;;;;;;;0.60;0.40;;;7.90;1.40;;;8.48;100.00;94537.43;618000;226;32065;-76
2021/12/24 06:21:44;;;;;;;0.50;0.50;;;7.70;1.40;;;8.79;100.00;94533.63;647192;216;31708;-76
2021/12/24 06:24:26;;;;;;;1.30;0.60;;;8.00;1.40;;;8.82;100.00;94542.67;647596;212;32213;-76
2021/12/24 06:27:08;;;;;;;1.20;0.47;;;8.10;1.40;;;8.65;100.00;94530.81;620170;225;32458;-76
2021/12/24 06:29:50;;;;;;;0.60;0.30;;;8.00;1.40;;;8.65;100.00;94535.14;621364;222;32081;-76
2021/12/24 06:32:36;;;;;;;0.40;0.35;;;7.90;1.40;;;8.71;100.00;94540.43;644477;216;31520;-76
2021/12/24 06:35:53;;;;;;;0.62;0.45;;;8.00;1.40;;;8.67;100.00;94545.08;648224;212;32137;-76
2021/12/24 06:38:33;;;;;;;0.60;0.43;;;7.90;1.40;;;8.60;100.00;94540.05;648897;216;31603;-77
2021/12/24 06:41:17;;;;;;;1.00;0.77;;;7.80;1.40;;;8.56;100.00;94546.92;618464;226;32181;-76
2021/12/24 06:43:59;;;;;;;0.60;0.50;;;7.70;1.40;;;8.57;100.00;94535.32;648627;216;31496;-76
2021/12/24 06:46:40;;;;;;;1.20;0.50;;;7.90;1.40;;;8.49;100.00;94539.35;622045;226;31789;-76
2021/12/24 06:49:22;;;;;;;0.70;0.33;;;7.80;1.40;;;8.56;100.00;94541.57;648034;216;31504;-76
2021/12/24 06:52:04;;;;;;;0.50;0.30;;;7.80;1.40;;;8.53;100.00;94547.23;649224;216;31488;-75
2021/12/24 06:54:46;;;;;;;0.40;0.20;;;7.80;1.40;;;8.33;100.00;94549.86;649169;216;31498;-76
2021/12/24 06:57:28;;;;;;;0.43;0.30;;;7.60;1.40;;;8.30;100.00;94547.66;646884;216;31504;-76
2021/12/24 07:00:18;;;;;;;0.45;0.30;;;7.60;1.40;;;8.32;100.00;94543.94;603391;233;32157;-76
2021/12/24 07:02:59;;;;;;;0.82;0.60;;;7.60;1.40;;;8.41;100.00;94547.05;634201;217;32240;-77
2021/12/24 07:05:41;;;;;;;0.40;0.30;;;7.70;1.40;;;8.39;100.00;94546.02;645326;212;32267;-76
2021/12/24 07:08:24;;;;;;;0.65;0.37;;;7.60;1.40;;;8.38;100.00;94547.62;646543;216;31501;-77
2021/12/24 07:11:11;;;;;;;0.50;0.30;;;7.70;1.40;;;8.30;100.00;94551.45;649888;216;31641;-77
2021/12/24 07:13:55;;;;;;;0.60;0.40;;;7.60;1.40;;;8.32;100.00;94552.57;648687;216;31866;-75
2021/12/24 07:16:46;;;;;;;0.50;0.37;;;7.60;1.40;;;8.37;100.00;94551.80;647544;216;31898;-76
2021/12/24 07:19:28;;;;;;;0.70;0.37;;;7.70;1.40;;;8.51;100.00;94557.30;646439;212;31488;-74
2021/12/24 07:22:13;;;;;;;0.60;0.40;;;7.80;1.40;;;8.51;100.00;94569.98;646110;213;32078;-75
2021/12/24 07:24:54;;;;;;;0.40;0.30;;;7.80;1.40;;;8.63;100.00;94557.14;647005;212;32111;-74
2021/12/24 07:27:36;;;;;;;0.40;0.40;;;7.90;1.40;;;8.55;100.00;94561.66;620354;226;31844;-76
2021/12/24 07:30:20;;;;;;;0.30;0.30;;;7.80;1.40;;;8.48;100.00;94558.45;627011;226;23503;-76
2021/12/24 07:33:00;;;;;;;1.00;0.70;;;7.70;1.40;;;8.50;100.00;94562.95;649324;216;31417;-76
2021/12/24 07:35:51;;;;;;;0.60;0.60;;;7.70;1.40;;;8.71;100.00;94563.82;648504;216;31503;-76
2021/12/24 07:38:32;;;;;;;1.20;0.40;;;8.00;1.40;;;8.64;100.00;94558.09;646809;216;31524;-76
2021/12/24 07:41:17;;;;;;;0.80;0.40;;;7.90;1.40;;;8.55;100.00;94553.52;646391;212;31515;-74
2021/12/24 07:43:59;;;;;;;0.60;0.32;;;7.70;1.40;;;8.63;100.00;94547.83;651054;216;42655;-76
2021/12/24 07:46:49;;;;;;;0.70;0.40;;;7.90;1.40;;;8.68;100.00;94548.55;647631;216;31635;-74
2021/12/24 07:49:30;;;;;;;0.40;0.40;;;7.90;1.40;;;8.67;100.00;94558.21;618102;222;32305;-77
2021/12/24 07:52:15;;;;;;;0.43;0.40;;;8.00;1.40;;;8.75;100.00;94559.13;650289;212;31503;-76
2021/12/24 07:57:42;;;;;;;0.50;0.40;;;7.90;1.40;;;8.74;100.00;94561.17;619810;226;31809;-78
2021/12/24 08:00:26;;;;;;;0.50;0.40;;;8.10;1.40;;;8.55;100.00;94555.17;646271;212;31499;-77
2021/12/24 08:03:07;;;;;;;0.60;0.30;;;8.00;1.40;;;8.54;100.00;94557.09;647026;216;32090;-75
2021/12/24 08:05:51;;;;;;;0.40;0.30;;;7.90;1.40;;;8.54;100.00;94565.80;615667;226;32378;-77
2021/12/24 08:08:32;;;;;;;0.50;0.40;;;7.90;1.40;;;8.45;100.00;94569.23;645619;216;31843;-76
2021/12/24 08:11:20;;;;;;;0.40;0.20;;;7.90;1.40;;;8.42;100.00;94564.51;645309;216;31485;-75
2021/12/24 08:14:11;;;;;;;0.60;0.40;;;7.90;1.40;;;8.37;100.00;94570.85;645254;216;31482;-75
2021/12/24 08:16:52;;;;;;;0.60;0.40;;;7.80;1.40;;;8.34;100.00;94570.91;646231;216;31514;-77
2021/12/24 08:19:34;;;;;;;0.40;0.20;;;7.80;1.40;;;8.37;100.00;94580.38;647962;216;31884;-76
2021/12/24 08:22:19;;;;;;;0.47;0.30;;;7.90;1.40;;;8.24;100.00;94575.55;647673;216;31488;-76
2021/12/24 08:25:01;;;;;;;0.60;0.50;;;7.70;1.40;;;8.25;100.00;94580.74;648003;213;31486;-78
2021/12/24 08:27:42;;;;;;;0.70;0.40;;;7.70;1.40;;;8.30;100.00;94572.95;621680;222;31850;-77
2021/12/24 08:30:24;;;;;;;1.00;0.40;;;7.70;1.40;;;8.25;100.00;94574.59;645814;212;31484;-77
2021/12/24 08:35:51;;;;;;;0.70;0.45;;;7.60;1.40;;;8.17;100.00;94575.87;649039;216;31738;-77
2021/12/24 08:38:33;;;;;;;0.90;0.40;;;7.70;1.40;;;8.12;100.00;94581.08;646345;212;31502;-77
2021/12/24 08:41:18;;;;;;;0.40;0.30;;;7.60;1.40;;;8.11;100.00;94579.04;649552;216;31625;-77
2021/12/24 08:44:00;;;;;;;0.40;0.30;;;7.50;1.40;;;8.17;100.00;94571.66;630756;222;31682;-74
2021/12/24 08:46:41;;;;;;;0.80;0.50;;;7.60;1.40;;;8.16;100.00;94567.14;648057;216;31502;-76
2021/12/24 08:49:26;;;;;;;0.40;0.30;;;7.60;1.40;;;8.19;100.00;94559.64;646854;216;31488;-77
2021/12/24 08:52:05;;;;;;;0.40;0.20;;;7.60;1.40;;;8.27;100.00;94565.52;647405;216;31495;-77
2021/12/24 08:54:47;;;;;;;0.90;0.60;;;7.70;1.40;;;8.28;100.00;94569.11;646617;212;32059;-76
2021/12/24 08:57:28;;;;;;;0.60;0.50;;;7.70;1.40;;;8.24;100.00;94567.45;647684;212;31552;-75
2021/12/24 09:00:11;;;;;;;0.40;0.30;;;7.70;1.40;;;8.28;100.00;94569.31;649052;216;31562;-77
2021/12/24 09:02:53;;;;;;;0.50;0.50;;;7.70;1.40;;;8.30;100.00;94568.91;620768;222;32015;-75
2021/12/24 09:05:37;;;;;;;0.50;0.30;;;7.70;1.40;;;8.23;100.00;94571.94;641529;216;31667;-76
2021/12/24 09:08:19;;;;;;;0.70;0.40;;;7.60;1.40;;;8.22;100.00;94577.92;646800;216;31507;-77
2021/12/24 09:11:01;;;;;;;0.40;0.30;;;7.60;1.40;;;8.21;100.00;94577.72;647951;212;31494;-76
2021/12/24 09:13:43;;;;;;;0.50;0.40;;;7.60;1.40;;;8.19;100.00;94592.31;647973;216;31763;-75
2021/12/24 09:16:24;;;;;;;0.50;0.30;;;7.60;1.40;;;8.22;100.00;94587.05;647517;212;31640;-75
2021/12/24 09:19:09;;;;;;;0.60;0.60;;;7.60;1.40;;;8.01;100.00;94586.70;647502;216;31638;-77
2021/12/24 09:21:47;;;;;;;0.70;0.30;;;7.40;1.40;;;7.96;100.00;94597.55;646899;214;33649;-74
2021/12/24 09:24:30;;;;;;;0.40;0.30;;;7.30;1.40;;;7.80;100.00;94596.52;647505;216;32048;-76
2021/12/24 09:27:11;;;;;;;0.40;0.28;;;7.20;1.40;;;7.73;100.00;94598.84;619374;226;33174;-75
2021/12/24 09:29:52;;;;;;;0.52;0.40;;;7.20;1.40;;;7.66;100.00;94591.70;647699;212;32279;-76
2021/12/24 09:32:34;;;;;;;0.70;0.40;;;7.10;1.40;;;7.55;100.00;94594.14;648406;212;34032;-75
2021/12/24 09:35:51;;;;;;;0.40;0.40;;;7.00;1.40;;;7.47;100.00;94588.56;647565;212;31629;-76
2021/12/24 09:38:33;;;;;;;0.40;0.23;;;6.90;1.40;;;7.38;100.00;94587.17;646975;216;31496;-76
2021/12/24 09:41:23;;;;;;;0.70;0.40;;;6.80;1.40;;;7.39;100.00;94589.14;647072;212;31516;-76
2021/12/24 09:44:11;;;;;;;0.40;0.30;;;6.80;1.40;;;7.42;100.00;94580.40;647097;212;31781;-76
2021/12/24 09:46:53;;;;;;;0.50;0.30;;;6.70;1.40;;;7.39;100.00;94578.78;619144;226;31853;-75
2021/12/24 09:49:36;;;;;;;0.40;0.30;;;6.80;1.40;;;7.36;100.00;94583.88;647543;216;32089;-76
2021/12/24 09:52:17;;;;;;;0.40;0.30;;;6.80;1.40;;;7.29;100.00;94588.41;648607;213;42142;-76
2021/12/24 09:54:59;;;;;;;0.50;0.30;;;6.70;1.40;;;7.31;100.00;94582.45;647022;212;31517;-76
2021/12/24 09:57:44;;;;;;;0.70;0.40;;;6.90;1.40;;;7.38;100.00;94576.81;646199;216;31487;-74
2021/12/24 10:00:26;;;;;;;0.60;0.30;;;6.90;1.40;;;7.47;100.00;94574.59;647567;216;31521;-75
2021/12/24 10:03:11;;;;;;;0.50;0.30;;;7.00;1.40;;;7.49;100.00;94583.92;647174;216;31825;-74
2021/12/24 10:05:53;;;;;;;0.50;0.32;;;7.00;1.40;;;7.36;100.00;94574.83;635730;217;31864;-76
2021/12/24 10:08:34;;;;;;;0.50;0.40;;;6.80;1.40;;;7.41;100.00;94582.84;619643;226;31963;-76
2021/12/24 10:11:17;;;;;;;0.40;0.30;;;6.90;1.40;;;7.34;100.00;94581.17;646731;216;31472;-76
2021/12/24 10:14:03;;;;;;;0.40;0.30;;;6.90;1.40;;;7.37;100.00;94559.17;618694;223;32510;-75
2021/12/24 10:16:47;;;;;;;1.30;0.50;;;6.90;1.40;;;7.36;100.00;94554.70;647461;216;31686;-75
2021/12/24 10:19:28;;;;;;;0.40;0.30;;;6.80;1.40;;;7.36;100.00;94563.12;647068;212;31509;-74
2021/12/24 10:22:11;;;;;;;1.60;1.00;;;6.80;1.40;;;7.36;100.00;94552.88;619923;222;31975;-74
2021/12/24 10:25:05;;;;;;;0.60;0.50;;;6.80;1.40;;;7.34;100.00;94546.40;620161;226;31865;-76
2021/12/24 10:27:45;;;;;;;0.40;0.30;;;6.80;1.40;;;7.33;100.00;94551.02;647925;216;31478;-74
2021/12/24 10:30:29;;;;;;;0.40;0.20;;;6.80;1.40;;;7.36;100.00;94554.75;646915;216;31514;-75
2021/12/24 10:35:51;;;;;;;1.15;0.43;;;7.00;1.40;;;7.38;100.00;94555.04;647017;216;31474;-74
2021/12/24 10:38:32;;;;;;;0.60;0.60;;;6.90;1.40;;;7.39;100.00;94549.66;647768;216;31501;-75
2021/12/24 10:41:14;;;;;;;0.50;0.40;;;6.90;1.40;;;7.42;100.00;94557.52;647606;216;31479;-75
2021/12/24 10:43:56;;;;;;;0.50;0.30;;;6.90;1.40;;;7.39;100.00;94554.63;646972;216;31527;-74
2021/12/24 10:49:02;;;;;;;0.50;0.50;;;6.80;1.40;;;7.42;100.00;94553.64;646680;212;42052;-72
2021/12/24 10:51:58;;;;;;;0.60;0.50;;;6.90;1.40;;;7.37;100.00;94552.22;648314;216;31482;-74
2021/12/24 10:55:09;;;;;;;0.40;0.30;;;6.90;1.40;;;7.44;100.00;94549.05;647504;216;31569;-72
2021/12/24 10:57:53;;;;;;;0.40;0.20;;;6.90;1.40;;;7.47;100.00;94550.11;646371;216;31505;-75
2021/12/24 11:00:42;;;;;;;0.40;0.37;;;6.90;1.40;;;7.43;100.00;94542.02;618350;226;31871;-75
2021/12/24 11:03:24;;;;;;;0.77;0.60;;;6.90;1.40;;;7.41;100.00;94530.81;647205;216;31503;-73
2021/12/24 11:06:06;;;;;;;0.40;0.20;;;6.90;1.40;;;7.41;100.00;94529.98;640054;212;31940;-76
2021/12/24 11:08:53;;;;;;;0.50;0.30;;;6.90;1.40;;;7.51;100.00;94529.13;618120;222;32019;-75
2021/12/24 11:11:35;;;;;;;0.40;0.20;;;6.90;1.40;;;7.46;100.00;94523.31;647788;216;31470;-74
2021/12/24 11:14:20;;;;;;;0.52;0.30;;;6.90;1.40;;;7.49;100.00;94514.84;646417;212;31507;-76
2021/12/24 11:17:01;;;;;;;0.40;0.30;;;6.90;1.40;;;7.52;100.00;94511.79;646904;212;32026;-76
2021/12/24 11:19:51;;;;;;;0.80;0.60;;;6.90;1.40;;;7.52;100.00;94506.68;642445;217;31539;-76
2021/12/24 11:25:11;;;;;;;0.70;0.40;;;6.80;1.40;;;7.38;100.00;94501.42;646475;216;32022;-76
2021/12/24 11:27:53;;;;;;;0.40;0.40;;;6.80;1.40;;;7.39;100.00;94498.13;646113;216;31477;-74
2021/12/24 11:30:35;;;;;;;0.40;0.22;;;6.80;1.40;;;7.43;100.00;94497.16;618933;226;31851;-76
2021/12/24 11:35:51;;;;;;;;;;;6.70;1.40;;;7.34;100.00;94483.05;622923;224;24893;-76
2021/12/24 11:38:34;;;;;;;;;;;6.60;1.40;;;7.37;100.00;94488.09;653557;216;24842;-76
2021/12/24 11:41:17;;;;;;;;;;;6.60;1.40;;;7.36;100.00;94496.19;653085;212;24826;-75
2021/12/24 11:43:59;;;;;;;;;;;6.60;1.40;;;7.33;100.00;94484.25;623319;224;24773;-74
2021/12/24 11:46:41;;;;;;;;;;;6.70;1.40;;;7.36;100.00;94482.87;653353;212;24849;-74
2021/12/24 11:49:21;;;;;;;;;;;6.70;1.40;;;7.32;100.00;94479.59;652894;216;25117;-77
2021/12/24 11:52:05;;;;;;;;;;;6.60;1.40;;;7.31;100.00;94480.36;654566;216;25361;-77
2021/12/24 11:54:46;;;;;;;;;;;6.60;1.40;;;7.32;100.00;94475.00;652689;216;25059;-75
2021/12/24 11:57:31;;;;;;;;;;;6.70;1.40;;;7.39;100.00;94471.80;653784;213;24905;-75
2021/12/24 12:00:13;;;;;;;;;;;6.80;1.40;;;7.38;100.00;94472.31;653769;216;24824;-75
2021/12/24 12:02:55;;;;;;;;;;;6.80;1.40;;;7.38;100.00;94466.97;653108;212;25386;-75
2021/12/24 12:05:37;;;;;;;;;;;6.70;1.40;;;7.41;100.00;94468.20;647183;212;24865;-76
2021/12/24 12:08:33;;;;;;;;;;;6.70;1.40;;;7.48;100.00;94465.23;653622;212;24714;-73
2021/12/24 12:11:15;;;;;;;;;;;6.90;1.40;;;7.51;100.00;94467.49;654047;216;24790;-74
2021/12/24 12:14:01;;;;;;;;;;;6.90;1.40;;;7.46;100.00;94460.44;653237;216;25161;-74
2021/12/24 12:16:56;;;;;;;;;;;6.90;1.40;;;7.44;100.00;94465.45;654402;212;24825;-76
2021/12/24 12:19:46;;;;;;;;;;;6.90;1.40;;;7.48;100.00;94469.45;653908;216;24811;-73
2021/12/24 12:22:31;;;;;;;;;;;6.90;1.40;;;7.47;100.00;94458.97;649131;216;24734;-74
2021/12/24 12:25:06;;;;;;;;;;;6.90;1.40;;;7.44;100.00;94457.63;654125;212;24813;-74
2021/12/24 12:27:46;;;;;;;;;;;7.00;1.40;;;7.53;100.00;94459.13;622464;226;25382;-74
2021/12/24 12:30:35;;;;;;;;;;;7.00;1.40;;;7.48;100.00;94460.66;649346;216;24816;-73
2021/12/24 12:35:57;;;;;;;0.40;0.40;;;7.00;1.40;;;7.50;100.00;94449.88;647083;216;42147;-74
2021/12/24 12:38:43;;;;;;;0.80;0.60;;;7.00;1.40;;;7.48;100.00;94447.55;618271;222;31877;-75
2021/12/24 12:44:10;;;;;;;3.00;0.60;;;6.90;1.40;;;7.54;100.00;94444.80;620300;226;32037;-76
2021/12/24 12:46:54;;;;;;;0.40;0.30;;;7.00;1.40;;;7.49;100.00;94447.70;648790;216;32622;-76
2021/12/24 12:49:42;;;;;;;0.40;0.37;;;6.90;1.40;;;7.45;100.00;94448.98;644813;216;31506;-78
2021/12/24 12:52:35;;;;;;;0.40;0.32;;;7.00;1.40;;;7.51;100.00;94446.98;645925;216;31525;-76
2021/12/24 12:55:26;;;;;;;1.30;0.60;;;6.90;1.40;;;7.51;100.00;94443.36;647120;216;32549;-74
2021/12/24 12:58:22;;;;;;;0.60;0.60;;;6.90;1.40;;;7.56;100.00;94437.42;619453;222;31839;-75
2021/12/24 13:01:05;;;;;;;0.50;0.43;;;7.00;1.40;;;7.55;100.00;94445.48;647279;216;31595;-75
2021/12/24 13:04:11;;;;;;;0.80;0.80;;;7.00;1.40;;;7.63;100.00;94443.04;618389;226;31829;-75
2021/12/24 13:09:32;;;;;;;0.50;0.40;;;6.90;1.40;;;7.56;100.00;94433.30;646115;216;31526;-75
2021/12/24 13:12:12;;;;;;;0.50;0.50;;;7.00;1.40;;;7.60;100.00;94423.93;648006;212;32170;-75
2021/12/24 13:14:54;;;;;;;5.70;3.20;;;7.00;1.40;;;7.67;100.00;94437.00;648018;212;31507;-74
2021/12/24 13:17:36;;;;;;;1.87;1.77;;;7.00;1.40;;;7.73;100.00;94431.75;647444;216;31556;-76
2021/12/24 13:23:18;;;;;;;2.70;1.10;;;7.10;1.40;;;7.72;100.00;94420.39;647209;216;34009;-75
2021/12/24 13:26:09;;;;;;;1.73;1.20;;;7.00;1.40;;;7.70;100.00;94416.34;619535;226;42569;-77
2021/12/24 13:29:00;;;;;;;0.40;0.20;;;7.10;1.40;;;7.72;100.00;94411.81;647384;216;32072;-77
2021/12/24 13:31:51;;;;;;;0.70;0.60;;;7.10;1.40;;;7.67;100.00;94406.08;647286;216;42219;-75
2021/12/24 13:35:52;;;;;;;;;;;7.00;1.40;;;7.68;100.00;94397.63;654645;216;25200;-77
2021/12/24 13:38:33;;;;;;;;;;;7.10;1.40;;;7.74;100.00;94399.03;655072;212;24823;-75
2021/12/24 13:41:15;;;;;;;;;;;7.10;1.40;;;7.79;100.00;94395.66;649000;215;24822;-76
2021/12/24 13:43:58;;;;;;;;;;;7.10;1.40;;;7.78;100.00;94393.09;653700;216;24813;-74